createdAt,value
2018-04-01T00:01:13.213Z,20.10
2018-04-01T00:03:40.813Z,20.37
2018-04-01T00:06:08.440Z,19.33
2018-04-01T00:08:36.037Z,18.87
2018-04-01T00:11:04.417Z,18.57
2018-04-01T00:13:32.788Z,19.77
2018-04-01T00:16:01.172Z,18.93
2018-04-01T00:18:28.774Z,18.87
2018-04-01T00:20:56.393Z,18.57
2018-04-01T00:23:24.002Z,18.50
2018-04-01T00:25:51.608Z,18.40
2018-04-01T00:28:19.213Z,19.23
2018-04-01T00:30:46.840Z,18.50
2018-04-01T00:33:14.444Z,18.03
2018-04-01T00:35:42.829Z,17.30
2018-04-01T00:38:10.440Z,18.17
2018-04-01T00:40:38.058Z,17.40
2018-04-01T00:43:06.432Z,16.87
2018-04-01T00:45:34.802Z,16.97
2018-04-01T00:48:02.423Z,18.13
2018-04-01T00:50:30.021Z,17.30
2018-04-01T00:52:57.636Z,17.83
2018-04-01T00:55:25.250Z,16.63
2018-04-01T00:57:52.860Z,17.50
2018-04-01T01:00:20.481Z,16.00
2018-04-01T01:02:48.094Z,16.50
2018-04-01T01:05:15.695Z,16.37
2018-04-01T01:07:43.312Z,16.57
2018-04-01T01:10:10.928Z,15.77
2018-04-01T01:12:38.544Z,16.03
2018-04-01T01:15:06.926Z,15.83
2018-04-01T01:17:34.555Z,15.27
2018-04-01T01:20:02.930Z,15.63
2018-04-01T01:22:30.531Z,15.53
2018-04-01T01:24:58.233Z,15.27
2018-04-01T01:27:25.846Z,15.63
2018-04-01T01:29:53.489Z,16.23
2018-04-01T01:32:21.100Z,15.17
2018-04-01T01:34:48.712Z,15.77
2018-04-01T01:37:16.320Z,16.10
2018-04-01T01:39:44.693Z,14.80
2018-04-01T01:42:12.304Z,16.33
2018-04-01T01:44:39.921Z,15.37
2018-04-01T01:47:08.292Z,15.90
2018-04-01T01:49:35.985Z,16.20
2018-04-01T01:52:04.364Z,15.93
2018-04-01T01:54:32.738Z,15.03
2018-04-01T01:57:00.357Z,15.40
2018-04-01T01:59:27.965Z,15.70
2018-04-01T02:01:55.578Z,14.97
2018-04-01T02:04:23.188Z,15.97
2018-04-01T02:06:50.785Z,14.90
2018-04-01T02:09:19.165Z,14.43
2018-04-01T02:11:47.552Z,15.83
2018-04-01T02:14:15.937Z,16.07
2018-04-01T02:16:44.304Z,17.00
2018-04-01T02:19:12.685Z,16.10
2018-04-01T02:21:40.306Z,17.07
2018-04-01T02:24:07.908Z,16.07
2018-04-01T02:26:35.528Z,14.83
2018-04-01T02:29:03.128Z,16.27
2018-04-01T02:31:30.759Z,16.83
2018-04-01T02:33:58.349Z,16.53
2018-04-01T02:36:25.974Z,16.10
2018-04-01T02:38:53.584Z,15.27
2018-04-01T02:41:21.193Z,16.60
2018-04-01T02:43:48.808Z,16.97
2018-04-01T02:46:16.429Z,16.50
2018-04-01T02:48:44.237Z,16.83
2018-04-01T02:51:11.819Z,16.37
2018-04-01T02:53:39.434Z,17.23
2018-04-01T02:56:07.038Z,16.90
2018-04-01T02:58:34.655Z,15.50
2018-04-01T03:01:02.269Z,16.97
2018-04-01T03:03:29.893Z,16.40
2018-04-01T03:05:57.508Z,17.13
2018-04-01T03:08:25.125Z,17.27
2018-04-01T03:10:53.499Z,16.63
2018-04-01T03:13:21.869Z,16.43
2018-04-01T03:15:50.259Z,16.80
2018-04-01T03:18:17.862Z,17.63
2018-04-01T03:20:45.482Z,18.13
2018-04-01T03:23:13.844Z,17.93
2018-04-01T03:25:42.961Z,17.10
2018-04-01T03:28:11.331Z,17.63
2018-04-01T03:30:40.447Z,17.63
2018-04-01T03:33:08.812Z,18.07
2018-04-01T03:35:36.428Z,18.30
2018-04-01T03:38:04.036Z,17.70
2018-04-01T03:40:31.657Z,17.53
2018-04-01T03:42:59.269Z,19.60
2018-04-01T03:45:28.373Z,19.23
2018-04-01T03:47:55.991Z,18.83
2018-04-01T03:50:23.634Z,19.07
2018-04-01T03:52:51.993Z,18.97
2018-04-01T03:55:20.373Z,19.67
2018-04-01T03:57:47.984Z,18.43
2018-04-01T04:00:15.593Z,19.67
2018-04-01T04:02:43.201Z,18.97
2018-04-01T04:05:10.811Z,19.87
2018-04-01T04:07:38.420Z,20.57
2018-04-01T04:10:06.036Z,20.53
2018-04-01T04:12:33.649Z,20.30
2018-04-01T04:15:02.033Z,21.00
2018-04-01T04:17:29.693Z,21.50
2018-04-01T04:19:57.257Z,19.57
2018-04-01T04:22:25.633Z,21.33
2018-04-01T04:24:53.999Z,21.00
2018-04-01T04:27:21.621Z,21.13
2018-04-01T04:29:49.229Z,22.17
2018-04-01T04:32:16.829Z,20.57
2018-04-01T04:34:44.444Z,22.13
2018-04-01T04:37:12.241Z,22.87
2018-04-01T04:39:39.852Z,22.80
2018-04-01T04:42:07.464Z,23.07
2018-04-01T04:44:35.081Z,22.93
2018-04-01T04:47:02.689Z,23.37
2018-04-01T04:49:31.069Z,23.33
2018-04-01T04:51:58.676Z,23.37
2018-04-01T04:54:26.292Z,24.57
2018-04-01T04:56:53.893Z,24.40
2018-04-01T04:59:22.284Z,24.10
2018-04-01T05:01:50.665Z,24.27
2018-04-01T05:04:19.041Z,25.83
2018-04-01T05:06:47.412Z,23.73
2018-04-01T05:09:15.029Z,23.73
2018-04-01T05:11:42.634Z,23.63
2018-04-01T05:14:10.252Z,25.33
2018-04-01T05:16:37.856Z,22.40
2018-04-01T05:19:05.464Z,23.83
2018-04-01T05:21:33.073Z,23.70
2018-04-01T05:24:00.689Z,24.10
2018-04-01T05:26:29.064Z,24.57
2018-04-01T05:28:57.446Z,25.37
2018-04-01T05:31:25.082Z,24.87
2018-04-01T05:33:52.688Z,23.60
2018-04-01T05:36:20.316Z,23.60
2018-04-01T05:38:49.429Z,24.23
2018-04-01T05:41:18.542Z,24.43
2018-04-01T05:43:46.918Z,22.80
2018-04-01T05:46:14.527Z,24.03
2018-04-01T05:48:42.140Z,24.03
2018-04-01T05:51:09.746Z,57.03
2018-04-01T05:53:37.365Z,53.73
2018-04-01T05:56:04.986Z,48.03
2018-04-01T05:58:32.604Z,45.57
2018-04-01T06:01:00.216Z,43.27
2018-04-01T06:03:27.808Z,40.50
2018-04-01T06:05:55.431Z,39.73
2018-04-01T06:08:23.040Z,38.20
2018-04-01T06:10:50.655Z,38.70
2018-04-01T06:13:19.065Z,36.40
2018-04-01T06:15:46.672Z,35.47
2018-04-01T06:18:14.277Z,35.27
2018-04-01T06:20:41.889Z,36.80
2018-04-01T06:23:09.506Z,31.53
2018-04-01T06:25:37.173Z,32.37
2018-04-01T06:28:04.789Z,31.43
2018-04-01T06:30:32.411Z,32.03
2018-04-01T06:33:00.049Z,31.30
2018-04-01T06:35:27.648Z,32.17
2018-04-01T06:37:55.263Z,28.77
2018-04-01T06:40:23.629Z,29.97
2018-04-01T06:42:51.244Z,30.60
2018-04-01T06:45:18.902Z,30.43
2018-04-01T06:47:46.509Z,30.57
2018-04-01T06:50:14.178Z,92.90
2018-04-01T06:52:41.787Z,69.23
2018-04-01T06:55:10.165Z,59.30
2018-04-01T06:57:37.770Z,63.03
2018-04-01T07:00:05.392Z,58.23
2018-04-01T07:02:33.019Z,54.97
2018-04-01T07:05:00.617Z,52.90
2018-04-01T07:07:29.737Z,52.53
2018-04-01T07:10:02.824Z,48.80
2018-04-01T07:12:31.240Z,47.47
2018-04-01T07:14:58.848Z,45.10
2018-04-01T07:17:26.470Z,47.70
2018-04-01T07:19:54.103Z,45.73
2018-04-01T07:22:21.745Z,43.23
2018-04-01T07:24:49.348Z,41.97
2018-04-01T07:27:17.729Z,42.17
2018-04-01T07:29:46.150Z,36.77
2018-04-01T07:32:13.733Z,36.30
2018-04-01T07:34:41.345Z,38.07
2018-04-01T07:37:09.729Z,36.70
2018-04-01T07:39:38.093Z,40.10
2018-04-01T07:42:05.716Z,38.33
2018-04-01T07:44:33.333Z,40.03
2018-04-01T07:47:01.705Z,37.67
2018-04-01T07:49:30.088Z,37.07
2018-04-01T07:51:57.729Z,37.73
2018-04-01T07:54:25.325Z,36.43
2018-04-01T07:56:53.713Z,36.20
2018-04-01T07:59:21.319Z,36.47
2018-04-01T08:01:49.296Z,36.17
2018-04-01T08:04:17.128Z,34.50
2018-04-01T08:06:45.516Z,34.87
2018-04-01T08:09:13.888Z,36.17
2018-04-01T08:11:42.254Z,34.17
2018-04-01T08:14:09.862Z,34.10
2018-04-01T08:16:37.468Z,34.17
2018-04-01T08:19:05.081Z,33.63
2018-04-01T08:21:32.694Z,34.07
2018-04-01T08:24:00.313Z,32.73
2018-04-01T08:26:27.928Z,31.93
2018-04-01T08:28:55.541Z,32.70
2018-04-01T08:31:23.174Z,31.07
2018-04-01T08:33:50.782Z,31.20
2018-04-01T08:36:18.414Z,30.77
2018-04-01T08:38:46.813Z,30.77
2018-04-01T08:41:14.414Z,30.77
2018-04-01T08:43:42.037Z,29.63
2018-04-01T08:46:10.413Z,28.23
2018-04-01T08:48:38.040Z,29.23
2018-04-01T08:51:05.660Z,28.60
2018-04-01T08:53:34.025Z,27.73
2018-04-01T08:56:01.653Z,28.37
2018-04-01T08:58:29.295Z,29.03
2018-04-01T09:00:56.921Z,26.20
2018-04-01T09:03:24.529Z,26.30
2018-04-01T09:05:52.149Z,26.10
2018-04-01T09:08:19.765Z,26.40
2018-04-01T09:10:47.373Z,25.90
2018-04-01T09:13:14.982Z,24.93
2018-04-01T09:15:42.605Z,24.90
2018-04-01T09:18:11.726Z,23.90
2018-04-01T09:20:40.118Z,24.93
2018-04-01T09:23:08.477Z,24.27
2018-04-01T09:25:36.088Z,23.97
2018-04-01T09:28:03.702Z,23.47
2018-04-01T09:30:32.087Z,23.83
2018-04-01T09:32:59.689Z,23.13
2018-04-01T09:35:27.305Z,23.23
2018-04-01T09:37:54.918Z,22.03
2018-04-01T09:40:22.573Z,23.07
2018-04-01T09:42:50.957Z,21.70
2018-04-01T09:45:19.344Z,22.27
2018-04-01T09:47:46.982Z,21.93
2018-04-01T09:50:14.600Z,22.23
2018-04-01T09:52:42.210Z,20.67
2018-04-01T09:55:09.817Z,21.27
2018-04-01T09:57:37.433Z,21.87
2018-04-01T10:00:05.052Z,19.93
2018-04-01T10:02:33.161Z,19.50
2018-04-01T10:05:10.026Z,19.83
2018-04-01T10:07:38.160Z,21.27
2018-04-01T10:10:07.045Z,18.53
2018-04-01T10:12:35.913Z,19.80
2018-04-01T10:15:04.022Z,19.43
2018-04-01T10:17:32.891Z,18.93
2018-04-01T10:20:01.054Z,18.47
2018-04-01T10:22:29.872Z,18.30
2018-04-01T10:24:58.003Z,18.67
2018-04-01T10:27:26.096Z,17.73
2018-04-01T10:29:54.221Z,17.57
2018-04-01T10:32:22.374Z,17.40
2018-04-01T10:34:51.261Z,16.97
2018-04-01T10:37:19.358Z,18.30
2018-04-01T10:39:47.457Z,16.07
2018-04-01T10:42:15.565Z,17.17
2018-04-01T10:44:43.682Z,16.43
2018-04-01T10:47:11.778Z,16.10
2018-04-01T10:49:40.644Z,16.17
2018-04-01T10:52:08.749Z,16.17
2018-04-01T10:54:37.134Z,14.63
2018-04-01T10:57:04.741Z,14.57
2018-04-01T10:59:32.348Z,18.97
2018-04-01T11:02:00.009Z,43.60
2018-04-01T11:04:27.628Z,36.93
2018-04-01T11:06:56.852Z,33.10
2018-04-01T11:09:25.976Z,29.60
2018-04-01T11:11:55.103Z,30.97
2018-04-01T11:14:24.273Z,29.43
2018-04-01T11:16:52.560Z,28.97
2018-04-01T11:19:20.940Z,27.30
2018-04-01T11:21:48.566Z,25.87
2018-04-01T11:24:20.145Z,25.00
2018-04-01T11:26:47.762Z,23.77
2018-04-01T11:29:15.382Z,23.10
2018-04-01T11:31:42.985Z,22.73
2018-04-01T11:34:10.620Z,22.47
2018-04-01T11:36:38.233Z,20.87
2018-04-01T11:39:07.456Z,21.73
2018-04-01T11:41:36.572Z,47.53
2018-04-01T11:44:05.689Z,37.43
2018-04-01T11:46:33.988Z,40.63
2018-04-01T11:49:02.373Z,35.77
2018-04-01T11:51:30.747Z,32.70
2018-04-01T11:53:59.156Z,31.40
2018-04-01T11:56:26.772Z,30.77
2018-04-01T11:58:54.372Z,30.17
2018-04-01T12:01:22.000Z,28.33
2018-04-01T12:03:49.604Z,28.37
2018-04-01T12:06:18.823Z,26.20
2018-04-01T12:08:46.347Z,26.53
2018-04-01T12:11:14.724Z,25.80
2018-04-01T12:13:42.336Z,25.90
2018-04-01T12:16:09.948Z,24.70
2018-04-01T12:18:37.573Z,24.07
2018-04-01T12:21:05.202Z,22.80
2018-04-01T12:23:33.572Z,23.50
2018-04-01T12:26:01.187Z,22.17
2018-04-01T12:28:28.802Z,22.77
2018-04-01T12:30:56.397Z,20.87
2018-04-01T12:33:24.020Z,21.63
2018-04-01T12:35:51.645Z,20.83
2018-04-01T12:38:19.309Z,20.90
2018-04-01T12:40:46.933Z,19.07
2018-04-01T12:43:14.548Z,19.23
2018-04-01T12:45:42.251Z,18.90
2018-04-01T12:48:09.837Z,19.63
2018-04-01T12:50:38.221Z,20.27
2018-04-01T12:53:06.599Z,30.27
2018-04-01T12:55:34.209Z,30.83
2018-04-01T12:58:01.822Z,28.00
2018-04-01T13:00:29.437Z,25.93
2018-04-01T13:02:57.057Z,25.57
2018-04-01T13:05:24.668Z,24.33
2018-04-01T13:07:52.282Z,23.40
2018-04-01T13:10:21.411Z,22.37
2018-04-01T13:12:49.031Z,22.20
2018-04-01T13:15:16.644Z,21.23
2018-04-01T13:17:44.256Z,20.27
2018-04-01T13:20:11.872Z,19.23
2018-04-01T13:22:39.485Z,18.93
2018-04-01T13:25:07.089Z,18.43
2018-04-01T13:27:35.474Z,16.90
2018-04-01T13:30:04.711Z,18.17
2018-04-01T13:32:33.840Z,33.40
2018-04-01T13:35:02.956Z,31.13
2018-04-01T13:37:31.233Z,29.27
2018-04-01T13:39:58.852Z,24.00
2018-04-01T13:42:26.465Z,22.13
2018-04-01T13:44:54.069Z,22.20
2018-04-01T13:47:21.680Z,20.70
2018-04-01T13:49:49.296Z,20.07
2018-04-01T13:52:16.908Z,18.50
2018-04-01T13:54:44.539Z,20.67
2018-04-01T13:57:12.137Z,19.87
2018-04-01T13:59:39.765Z,18.23
2018-04-01T14:02:07.392Z,17.70
2018-04-01T14:04:35.767Z,17.83
2018-04-01T14:07:03.381Z,17.10
2018-04-01T14:09:31.001Z,18.23
2018-04-01T14:11:58.626Z,17.83
2018-04-01T14:14:26.244Z,16.93
2018-04-01T14:16:53.881Z,16.27
2018-04-01T14:19:21.491Z,17.17
2018-04-01T14:21:49.856Z,15.80
2018-04-01T14:24:18.232Z,35.10
2018-04-01T14:26:45.841Z,29.77
2018-04-01T14:29:13.457Z,28.43
2018-04-01T14:31:41.211Z,26.00
2018-04-01T14:34:08.850Z,24.13
2018-04-01T14:36:36.465Z,23.17
2018-04-01T14:39:04.100Z,23.27
2018-04-01T14:41:31.701Z,23.37
2018-04-01T14:43:59.373Z,22.97
2018-04-01T14:46:26.934Z,22.77
2018-04-01T14:48:54.572Z,23.30
2018-04-01T14:51:22.186Z,22.53
2018-04-01T14:53:49.800Z,21.00
2018-04-01T14:56:17.421Z,20.03
2018-04-01T14:58:45.029Z,20.90
2018-04-01T15:01:12.667Z,20.70
2018-04-01T15:03:40.293Z,19.77
2018-04-01T15:06:07.912Z,19.37
2018-04-01T15:08:35.521Z,19.40
2018-04-01T15:11:03.134Z,18.73
2018-04-01T15:13:30.757Z,18.27
2018-04-01T15:15:58.376Z,18.03
2018-04-01T15:18:26.010Z,17.10
2018-04-01T15:20:54.385Z,17.67
2018-04-01T15:23:22.768Z,164.87
2018-04-01T15:25:51.143Z,150.83
2018-04-01T15:28:19.517Z,84.67
2018-04-01T15:30:47.240Z,47.80
2018-04-01T15:33:14.842Z,62.53
2018-04-01T15:35:42.463Z,58.33
2018-04-01T15:38:10.065Z,54.60
2018-04-01T15:40:39.181Z,49.60
2018-04-01T15:43:06.805Z,50.10
2018-04-01T15:45:34.410Z,47.07
2018-04-01T15:48:02.026Z,43.27
2018-04-01T15:50:29.641Z,40.57
2018-04-01T15:52:57.277Z,39.37
2018-04-01T15:55:24.912Z,38.87
2018-04-01T15:57:52.513Z,35.73
2018-04-01T16:00:20.122Z,35.57
2018-04-01T16:02:48.690Z,33.63
2018-04-01T16:05:17.136Z,30.97
2018-04-01T16:07:44.750Z,29.87
2018-04-01T16:10:12.519Z,29.37
2018-04-01T16:12:40.902Z,26.63
2018-04-01T16:15:08.519Z,26.77
2018-04-01T16:17:36.129Z,28.37
2018-04-01T16:20:04.529Z,26.80
2018-04-01T16:22:32.148Z,25.63
2018-04-01T16:24:59.756Z,25.20
2018-04-01T16:27:28.141Z,22.67
2018-04-01T16:29:55.775Z,22.27
2018-04-01T16:32:23.416Z,22.40
2018-04-01T16:34:51.028Z,23.20
2018-04-01T16:37:19.406Z,20.93
2018-04-01T16:39:48.032Z,20.27
2018-04-01T16:42:15.637Z,19.63
2018-04-01T16:44:43.266Z,18.93
2018-04-01T16:47:10.869Z,18.00
2018-04-01T16:49:38.492Z,18.60
2018-04-01T16:52:06.097Z,17.93
2018-04-01T16:54:33.719Z,17.47
2018-04-01T16:57:01.334Z,16.50
2018-04-01T16:59:28.987Z,19.40
2018-04-01T17:01:56.582Z,19.87
2018-04-01T17:04:24.197Z,18.77
2018-04-01T17:06:51.827Z,18.87
2018-04-01T17:09:20.265Z,20.13
2018-04-01T17:11:48.570Z,18.93
2018-04-01T17:14:16.194Z,18.17
2018-04-01T17:16:43.800Z,17.83
2018-04-01T17:19:11.417Z,18.23
2018-04-01T17:21:39.029Z,18.27
2018-04-01T17:24:08.140Z,17.90
2018-04-01T17:26:36.527Z,17.13
2018-04-01T17:29:04.905Z,17.67
2018-04-01T17:31:33.270Z,17.33
2018-04-01T17:34:00.921Z,15.60
2018-04-01T17:36:28.529Z,17.03
2018-04-01T17:38:56.917Z,16.17
2018-04-01T17:41:24.564Z,16.73
2018-04-01T17:43:52.209Z,16.93
2018-04-01T17:46:19.816Z,15.20
2018-04-01T17:48:47.423Z,32.80
2018-04-01T17:51:15.043Z,31.73
2018-04-01T17:53:43.437Z,28.43
2018-04-01T17:56:11.794Z,27.20
2018-04-01T17:58:40.169Z,24.20
2018-04-01T18:01:07.820Z,23.80
2018-04-01T18:03:35.502Z,23.70
2018-04-01T18:06:03.126Z,22.83
2018-04-01T18:08:30.720Z,20.77
2018-04-01T18:10:58.332Z,21.43
2018-04-01T18:13:25.943Z,19.97
2018-04-01T18:15:53.617Z,20.13
2018-04-01T18:18:21.353Z,18.90
2018-04-01T18:20:48.996Z,17.20
2018-04-01T18:23:16.612Z,17.23
2018-04-01T18:25:44.263Z,16.33
2018-04-01T18:28:11.841Z,16.37
2018-04-01T18:30:39.450Z,18.03
2018-04-01T18:33:07.073Z,15.80
2018-04-01T18:35:34.706Z,16.67
2018-04-01T18:38:02.318Z,15.87
2018-04-01T18:40:29.949Z,15.53
2018-04-01T18:42:57.561Z,19.60
2018-04-01T18:45:25.173Z,18.83
2018-04-01T18:47:52.777Z,19.33
2018-04-01T18:50:21.909Z,19.23
2018-04-01T18:52:49.512Z,18.90
2018-04-01T18:55:17.121Z,18.57
2018-04-01T18:57:44.737Z,18.13
2018-04-01T19:00:12.374Z,17.00
2018-04-01T19:02:40.742Z,17.40
2018-04-01T19:05:09.133Z,16.23
2018-04-01T19:07:37.504Z,15.13
2018-04-01T19:10:05.902Z,15.60
2018-04-01T19:12:33.517Z,15.80
2018-04-01T19:15:01.162Z,16.13
2018-04-01T19:17:30.001Z,16.30
2018-04-01T19:19:58.114Z,16.63
2018-04-01T19:22:26.270Z,15.80
2018-04-01T19:24:54.320Z,16.67
2018-04-01T19:27:22.433Z,16.33
2018-04-01T19:29:51.300Z,17.23
2018-04-01T19:32:19.429Z,17.23
2018-04-01T19:34:47.541Z,16.03
2018-04-01T19:37:15.711Z,18.07
2018-04-01T19:39:43.825Z,18.07
2018-04-01T19:42:11.919Z,17.70
2018-04-01T19:44:40.069Z,17.03
2018-04-01T19:47:08.352Z,16.90
2018-04-01T19:49:37.975Z,15.83
2018-04-01T19:52:06.861Z,17.13
2018-04-01T19:54:35.734Z,16.53
2018-04-01T19:57:03.839Z,15.40
2018-04-01T19:59:32.700Z,15.87
2018-04-01T20:02:00.823Z,14.70
2018-04-01T20:04:29.077Z,16.47
2018-04-01T20:06:57.187Z,14.60
2018-04-01T20:09:25.313Z,14.33
2018-04-01T20:11:53.417Z,14.27
2018-04-01T20:14:22.294Z,457.73
2018-04-01T20:16:50.405Z,371.80
2018-04-01T20:19:18.526Z,240.20
2018-04-01T20:21:46.653Z,218.90
2018-04-01T20:24:14.769Z,199.17
2018-04-01T20:26:42.894Z,164.20
2018-04-01T20:29:11.769Z,140.10
2018-04-01T20:31:39.884Z,120.00
2018-04-01T20:34:07.990Z,118.93
2018-04-01T20:36:36.105Z,100.17
2018-04-01T20:39:04.217Z,363.47
2018-04-01T20:41:32.358Z,225.80
2018-04-01T20:44:00.454Z,361.20
2018-04-01T20:46:29.408Z,223.07
2018-04-01T20:48:57.570Z,202.67
2018-04-01T20:51:25.681Z,180.90
2018-04-01T20:53:53.866Z,175.03
2018-04-01T20:56:22.016Z,149.63
2018-04-01T20:58:50.087Z,139.30
2018-04-01T21:01:18.196Z,496.47
2018-04-01T21:03:46.325Z,463.67
2018-04-01T21:06:14.428Z,295.97
2018-04-01T21:08:42.570Z,287.27
2018-04-01T21:11:10.653Z,261.93
2018-04-01T21:13:38.777Z,239.33
2018-04-01T21:16:06.881Z,206.03
2018-04-01T21:18:34.984Z,492.40
2018-04-01T21:21:03.105Z,515.57
2018-04-01T21:23:32.738Z,454.83
2018-04-01T21:26:01.241Z,307.23
2018-04-01T21:28:29.347Z,273.20
2018-04-01T21:30:57.545Z,249.30
2018-04-01T21:33:25.659Z,243.07
2018-04-01T21:35:54.748Z,221.97
2018-04-01T21:38:22.845Z,207.13
2018-04-01T21:40:51.016Z,183.30
2018-04-01T21:43:19.153Z,181.13
2018-04-01T21:45:47.270Z,164.30
2018-04-01T21:48:16.146Z,159.87
2018-04-01T21:50:44.319Z,377.97
2018-04-01T21:53:12.444Z,429.30
2018-04-01T21:55:40.605Z,282.17
2018-04-01T21:58:08.729Z,261.20
2018-04-01T22:00:36.841Z,239.67
2018-04-01T22:03:04.944Z,229.37
2018-04-01T22:05:33.133Z,211.10
2018-04-01T22:08:01.280Z,201.03
2018-04-01T22:10:29.396Z,181.43
2018-04-01T22:12:57.628Z,174.90
2018-04-01T22:15:26.501Z,159.70
2018-04-01T22:17:54.621Z,149.97
2018-04-01T22:20:22.842Z,145.67
2018-04-01T22:23:03.618Z,139.63
2018-04-01T22:25:31.801Z,361.27
2018-04-01T22:27:59.924Z,244.27
2018-04-01T22:30:28.041Z,271.03
2018-04-01T22:32:56.153Z,251.60
2018-04-01T22:35:25.038Z,189.93
2018-04-01T22:37:53.141Z,466.93
2018-04-01T22:40:21.245Z,477.13
2018-04-01T22:42:49.364Z,466.53
2018-04-01T22:45:17.476Z,330.47
2018-04-01T22:47:45.593Z,304.17
2018-04-01T22:50:13.789Z,278.40
2018-04-01T22:52:41.864Z,271.87
2018-04-01T22:55:09.977Z,239.67
2018-04-01T22:57:38.101Z,236.93
2018-04-01T23:00:06.224Z,223.73
2018-04-01T23:02:35.120Z,208.83
2018-04-01T23:05:04.006Z,189.70
2018-04-01T23:07:32.894Z,501.30
2018-04-01T23:10:01.014Z,557.00
2018-04-01T23:12:29.120Z,367.07
2018-04-01T23:14:57.301Z,342.57
2018-04-01T23:17:25.404Z,300.97
2018-04-01T23:19:53.544Z,276.57
2018-04-01T23:22:21.649Z,257.90
2018-04-01T23:24:49.778Z,223.67
2018-04-01T23:27:17.957Z,414.77
2018-04-01T23:29:46.073Z,340.80
2018-04-01T23:32:14.965Z,350.83
2018-04-01T23:34:43.072Z,316.80
2018-04-01T23:37:11.953Z,286.57
2018-04-01T23:39:40.842Z,274.77
2018-04-01T23:42:08.950Z,243.17
2018-04-01T23:44:37.049Z,236.70
2018-04-01T23:47:05.161Z,352.03
2018-04-01T23:49:33.272Z,504.70
2018-04-01T23:52:01.402Z,380.37
2018-04-01T23:54:30.332Z,336.37
2018-04-01T23:56:59.217Z,308.13
2018-04-01T23:59:28.106Z,277.80
